createdAt,value
2018-04-09T00:01:42.833Z,12.10
2018-04-09T00:04:11.157Z,12.17
2018-04-09T00:06:38.664Z,12.17
2018-04-09T00:09:06.912Z,10.70
2018-04-09T00:11:34.440Z,10.53
2018-04-09T00:14:01.967Z,10.47
2018-04-09T00:16:30.236Z,10.67
2018-04-09T00:18:58.512Z,9.50
2018-04-09T00:21:26.077Z,10.57
2018-04-09T00:23:53.653Z,9.87
2018-04-09T00:26:21.192Z,10.50
2018-04-09T00:28:49.476Z,9.70
2018-04-09T00:31:16.975Z,13.70
2018-04-09T00:33:44.470Z,10.63
2018-04-09T00:36:12.735Z,11.43
2018-04-09T00:38:40.224Z,10.87
2018-04-09T00:41:07.738Z,11.00
2018-04-09T00:43:35.327Z,9.43
2018-04-09T00:46:02.840Z,8.50
2018-04-09T00:48:30.468Z,9.17
2018-04-09T00:50:57.963Z,10.10
2018-04-09T00:53:37.313Z,10.17
2018-04-09T00:56:05.609Z,9.70
2018-04-09T00:58:33.113Z,11.60
2018-04-09T01:01:00.601Z,9.60
2018-04-09T01:03:28.871Z,10.87
2018-04-09T01:05:56.407Z,9.47
2018-04-09T01:08:23.917Z,9.80
2018-04-09T01:10:51.403Z,10.10
2018-04-09T01:13:18.910Z,11.30
2018-04-09T01:15:47.182Z,10.03
2018-04-09T01:18:15.441Z,8.53
2018-04-09T01:20:42.936Z,8.97
2018-04-09T01:23:10.475Z,8.27
2018-04-09T01:25:38.007Z,9.37
2018-04-09T01:28:05.500Z,9.00
2018-04-09T01:30:33.052Z,10.00
2018-04-09T01:33:01.318Z,8.87
2018-04-09T01:35:29.579Z,8.67
2018-04-09T01:37:57.117Z,9.80
2018-04-09T01:40:24.595Z,8.90
2018-04-09T01:42:52.113Z,8.77
2018-04-09T01:45:19.609Z,8.97
2018-04-09T01:47:47.102Z,8.93
2018-04-09T01:50:14.634Z,9.13
2018-04-09T01:52:42.902Z,8.83
2018-04-09T01:55:11.218Z,7.93
2018-04-09T01:57:38.704Z,9.27
2018-04-09T02:00:06.308Z,8.27
2018-04-09T02:02:33.864Z,9.23
2018-04-09T02:05:02.169Z,8.03
2018-04-09T02:07:29.663Z,8.17
2018-04-09T02:09:57.255Z,8.07
2018-04-09T02:12:25.517Z,8.07
2018-04-09T02:14:53.759Z,7.60
2018-04-09T02:17:21.247Z,8.70
2018-04-09T02:19:49.511Z,9.53
2018-04-09T02:22:17.026Z,7.40
2018-04-09T02:24:44.523Z,7.73
2018-04-09T02:27:12.017Z,7.43
2018-04-09T02:29:39.509Z,8.07
2018-04-09T02:32:07.002Z,8.13
2018-04-09T02:34:35.317Z,8.00
2018-04-09T02:37:02.854Z,8.33
2018-04-09T02:39:30.401Z,8.97
2018-04-09T02:41:58.643Z,8.20
2018-04-09T02:44:26.138Z,7.70
2018-04-09T02:46:54.410Z,8.87
2018-04-09T02:49:22.688Z,7.63
2018-04-09T02:51:50.974Z,7.40
2018-04-09T02:54:18.527Z,7.27
2018-04-09T02:56:46.068Z,11.80
2018-04-09T02:59:14.334Z,10.07
2018-04-09T03:01:42.575Z,7.17
2018-04-09T03:04:10.064Z,7.50
2018-04-09T03:06:38.329Z,7.47
2018-04-09T03:09:06.628Z,7.67
2018-04-09T03:11:34.888Z,7.27
2018-04-09T03:14:02.368Z,6.90
2018-04-09T03:16:29.911Z,7.37
2018-04-09T03:18:58.186Z,6.07
2018-04-09T03:21:26.463Z,6.67
2018-04-09T03:23:54.713Z,6.07
2018-04-09T03:26:22.291Z,6.67
2018-04-09T03:28:50.551Z,6.13
2018-04-09T03:31:18.053Z,5.73
2018-04-09T03:33:45.578Z,8.70
2018-04-09T03:36:13.833Z,8.70
2018-04-09T03:38:41.338Z,10.33
2018-04-09T03:41:08.830Z,10.07
2018-04-09T03:43:36.427Z,7.00
2018-04-09T03:46:04.675Z,5.50
2018-04-09T03:48:32.226Z,7.97
2018-04-09T03:50:59.765Z,6.90
2018-04-09T03:53:27.256Z,8.50
2018-04-09T03:55:54.754Z,6.80
2018-04-09T03:58:22.340Z,7.90
2018-04-09T04:00:49.815Z,5.87
2018-04-09T04:03:17.308Z,6.40
2018-04-09T04:05:44.859Z,5.80
2018-04-09T04:08:13.142Z,5.93
2018-04-09T04:10:40.635Z,5.60
2018-04-09T04:13:08.112Z,6.80
2018-04-09T04:15:47.612Z,10.20
2018-04-09T04:18:26.916Z,9.20
2018-04-09T04:21:07.074Z,7.60
2018-04-09T04:23:35.321Z,5.57
2018-04-09T04:26:02.804Z,23.43
2018-04-09T04:28:31.080Z,9.03
2018-04-09T04:30:59.345Z,7.90
2018-04-09T04:33:27.618Z,8.80
2018-04-09T04:35:55.930Z,6.03
2018-04-09T04:38:23.421Z,8.60
2018-04-09T04:40:50.913Z,9.93
2018-04-09T04:43:19.203Z,5.60
2018-04-09T04:45:46.692Z,6.37
2018-04-09T04:48:14.175Z,6.70
2018-04-09T04:50:41.669Z,6.20
2018-04-09T04:53:09.176Z,15.73
2018-04-09T04:55:36.684Z,10.97
2018-04-09T04:58:04.198Z,14.10
2018-04-09T05:00:31.691Z,5.83
2018-04-09T05:02:59.168Z,7.20
2018-04-09T05:05:26.673Z,5.93
2018-04-09T05:07:54.197Z,8.90
2018-04-09T05:10:21.675Z,17.33
2018-04-09T05:12:49.264Z,7.73
2018-04-09T05:15:17.512Z,7.17
2018-04-09T05:17:44.997Z,8.20
2018-04-09T05:20:13.274Z,11.57
2018-04-09T05:22:41.561Z,10.37
2018-04-09T05:25:09.099Z,8.23
2018-04-09T05:27:37.349Z,17.40
2018-04-09T05:30:04.849Z,12.13
2018-04-09T05:32:32.327Z,8.27
2018-04-09T05:34:59.814Z,9.70
2018-04-09T05:37:27.313Z,10.40
2018-04-09T05:39:54.890Z,8.70
2018-04-09T05:42:22.384Z,9.53
2018-04-09T05:44:49.860Z,12.23
2018-04-09T05:47:17.445Z,7.57
2018-04-09T05:49:45.005Z,9.47
2018-04-09T05:52:12.508Z,12.93
2018-04-09T05:54:40.001Z,9.63
2018-04-09T05:57:08.281Z,12.63
2018-04-09T05:59:36.528Z,8.20
2018-04-09T06:02:04.036Z,15.30
2018-04-09T06:04:31.553Z,11.97
2018-04-09T06:06:59.850Z,12.90
2018-04-09T06:09:27.353Z,13.37
2018-04-09T06:11:54.974Z,13.57
2018-04-09T06:14:22.451Z,6.37
2018-04-09T06:16:49.960Z,17.47
2018-04-09T06:19:18.207Z,11.17
2018-04-09T06:21:45.689Z,8.53
2018-04-09T06:24:13.981Z,16.83
2018-04-09T06:26:42.245Z,21.90
2018-04-09T06:29:10.533Z,8.37
2018-04-09T06:31:38.035Z,11.90
2018-04-09T06:34:05.641Z,11.27
2018-04-09T06:36:33.907Z,12.83
2018-04-09T06:39:02.176Z,10.03
2018-04-09T06:41:30.448Z,9.23
2018-04-09T06:43:57.937Z,12.00
2018-04-09T06:46:25.441Z,11.90
2018-04-09T06:48:52.975Z,13.20
2018-04-09T06:51:20.498Z,13.80
2018-04-09T06:53:47.993Z,7.57
2018-04-09T06:56:15.505Z,11.90
2018-04-09T06:58:43.767Z,8.93
2018-04-09T07:01:12.031Z,5.67
2018-04-09T07:03:39.535Z,9.80
2018-04-09T07:06:07.031Z,7.47
2018-04-09T07:08:34.571Z,24.90
2018-04-09T07:11:02.079Z,9.07
2018-04-09T07:13:30.388Z,11.90
2018-04-09T07:15:57.915Z,11.33
2018-04-09T07:18:26.180Z,11.90
2018-04-09T07:20:53.717Z,10.00
2018-04-09T07:23:21.236Z,8.70
2018-04-09T07:25:48.745Z,12.17
2018-04-09T07:28:17.008Z,10.63
2018-04-09T07:30:44.505Z,13.73
2018-04-09T07:33:12.002Z,10.03
2018-04-09T07:35:39.509Z,14.60
2018-04-09T07:38:07.013Z,7.77
2018-04-09T07:40:34.559Z,10.03
2018-04-09T07:43:02.042Z,15.17
2018-04-09T07:45:29.537Z,12.43
2018-04-09T07:47:57.088Z,9.90
2018-04-09T07:50:25.365Z,7.60
2018-04-09T07:52:53.635Z,8.80
2018-04-09T07:55:21.893Z,7.70
2018-04-09T07:57:50.202Z,15.40
2018-04-09T08:00:17.706Z,9.80
2018-04-09T08:02:45.214Z,10.20
2018-04-09T08:05:12.717Z,8.07
2018-04-09T08:07:40.325Z,13.70
2018-04-09T08:10:07.832Z,7.70
2018-04-09T08:12:35.319Z,7.43
2018-04-09T08:15:03.575Z,8.33
2018-04-09T08:17:31.160Z,6.93
2018-04-09T08:19:59.423Z,5.73
2018-04-09T08:22:27.702Z,5.33
2018-04-09T08:24:55.992Z,4.90
2018-04-09T08:27:23.550Z,5.13
2018-04-09T08:29:51.039Z,7.50
2018-04-09T08:32:18.561Z,4.10
2018-04-09T08:34:46.115Z,10.53
2018-04-09T08:37:14.376Z,6.67
2018-04-09T08:39:42.619Z,6.33
2018-04-09T08:42:10.134Z,7.70
2018-04-09T08:44:37.658Z,5.03
2018-04-09T08:47:05.159Z,3.30
2018-04-09T08:49:32.635Z,3.53
2018-04-09T08:52:00.146Z,3.43
2018-04-09T08:54:27.657Z,3.63
2018-04-09T08:56:55.167Z,3.37
2018-04-09T08:59:22.725Z,3.87
2018-04-09T09:01:50.224Z,4.07
2018-04-09T09:04:17.726Z,4.00
2018-04-09T09:06:46.017Z,5.83
2018-04-09T09:09:13.524Z,3.93
2018-04-09T09:11:41.026Z,4.47
2018-04-09T09:14:08.532Z,2.90
2018-04-09T09:16:36.054Z,5.43
2018-04-09T09:19:03.589Z,6.30
2018-04-09T09:21:31.148Z,8.83
2018-04-09T09:23:59.439Z,7.40
2018-04-09T09:26:26.928Z,5.77
2018-04-09T09:28:54.531Z,3.70
2018-04-09T09:31:22.796Z,5.73
2018-04-09T09:33:51.044Z,3.70
2018-04-09T09:36:18.662Z,6.07
2018-04-09T09:38:46.148Z,4.23
2018-04-09T09:41:13.648Z,5.13
2018-04-09T09:43:41.934Z,3.20
2018-04-09T09:46:10.190Z,6.40
2018-04-09T09:48:38.483Z,4.70
2018-04-09T09:51:06.026Z,5.50
2018-04-09T09:53:34.298Z,6.97
2018-04-09T09:56:02.548Z,4.13
2018-04-09T09:58:30.034Z,4.90
2018-04-09T10:01:01.138Z,4.30
2018-04-09T10:03:28.636Z,7.20
2018-04-09T10:05:56.883Z,8.00
2018-04-09T10:08:24.476Z,4.80
2018-04-09T10:10:51.990Z,2.90
2018-04-09T10:13:19.491Z,2.93
2018-04-09T10:15:47.003Z,3.67
2018-04-09T10:18:14.642Z,4.50
2018-04-09T10:20:42.160Z,3.13
2018-04-09T10:23:13.526Z,2.93
2018-04-09T10:25:41.007Z,2.43
2018-04-09T10:28:08.500Z,2.43
2018-04-09T10:30:36.087Z,4.37
2018-04-09T10:33:03.629Z,3.20
2018-04-09T10:35:31.912Z,8.10
2018-04-09T10:38:00.174Z,3.70
2018-04-09T10:40:28.467Z,4.73
2018-04-09T10:42:56.010Z,3.37
2018-04-09T10:45:24.293Z,4.03
2018-04-09T10:47:51.844Z,2.43
2018-04-09T10:50:20.129Z,3.03
2018-04-09T10:52:47.619Z,5.77
2018-04-09T10:55:15.117Z,3.20
2018-04-09T10:57:42.625Z,2.67
2018-04-09T11:00:10.154Z,6.30
2018-04-09T11:02:37.639Z,4.70
2018-04-09T11:05:05.176Z,6.43
2018-04-09T11:07:32.775Z,4.73
2018-04-09T11:10:00.294Z,2.33
2018-04-09T11:12:27.790Z,5.40
2018-04-09T11:14:55.313Z,2.57
2018-04-09T11:17:22.811Z,2.73
2018-04-09T11:19:50.390Z,2.37
2018-04-09T11:22:18.789Z,2.00
2018-04-09T11:24:47.072Z,3.13
2018-04-09T11:27:14.581Z,4.03
2018-04-09T11:29:42.064Z,3.90
2018-04-09T11:32:10.339Z,4.40
2018-04-09T11:34:38.742Z,7.23
2018-04-09T11:37:06.283Z,3.00
2018-04-09T11:39:33.750Z,4.03
2018-04-09T11:42:01.315Z,2.90
2018-04-09T11:44:28.857Z,5.40
2018-04-09T11:46:57.113Z,6.90
2018-04-09T11:49:25.385Z,5.83
2018-04-09T11:51:52.889Z,4.43
2018-04-09T11:54:20.385Z,4.10
2018-04-09T11:56:47.987Z,4.40
2018-04-09T11:59:15.488Z,5.40
2018-04-09T12:01:42.977Z,3.90
2018-04-09T12:04:11.223Z,4.47
2018-04-09T12:06:38.860Z,5.47
2018-04-09T12:09:06.341Z,3.27
2018-04-09T12:11:33.869Z,7.87
2018-04-09T12:14:01.408Z,2.67
2018-04-09T12:16:29.644Z,3.90
2018-04-09T12:18:57.149Z,4.70
2018-04-09T12:21:24.660Z,4.07
2018-04-09T12:23:52.165Z,5.13
2018-04-09T12:26:19.659Z,3.10
2018-04-09T12:28:47.150Z,2.87
2018-04-09T12:31:15.639Z,5.33
2018-04-09T12:33:43.150Z,5.17
2018-04-09T12:36:10.639Z,6.13
2018-04-09T12:38:38.922Z,3.30
2018-04-09T12:41:07.191Z,3.03
2018-04-09T12:43:35.437Z,4.30
2018-04-09T12:46:02.937Z,3.90
2018-04-09T12:48:30.495Z,5.77
2018-04-09T12:50:58.044Z,3.60
2018-04-09T12:53:26.317Z,5.07
2018-04-09T12:55:54.575Z,5.67
2018-04-09T12:58:22.842Z,6.50
2018-04-09T13:00:51.092Z,3.70
2018-04-09T13:03:18.601Z,4.93
2018-04-09T13:05:46.793Z,7.10
2018-04-09T13:08:14.304Z,3.10
2018-04-09T13:10:42.593Z,2.90
2018-04-09T13:13:10.863Z,5.83
2018-04-09T13:15:39.131Z,3.53
2018-04-09T13:18:07.410Z,3.07
2018-04-09T13:20:35.674Z,7.37
2018-04-09T13:23:03.925Z,3.23
2018-04-09T13:25:31.500Z,2.87
2018-04-09T13:27:58.974Z,3.07
2018-04-09T13:30:27.238Z,3.50
2018-04-09T13:32:54.746Z,5.67
2018-04-09T13:35:22.240Z,2.90
2018-04-09T13:37:49.747Z,3.57
2018-04-09T13:40:17.239Z,2.50
2018-04-09T13:42:44.850Z,3.40
2018-04-09T13:45:12.526Z,2.77
2018-04-09T13:47:40.070Z,3.57
2018-04-09T13:50:07.563Z,2.20
2018-04-09T13:52:35.187Z,3.60
2018-04-09T13:55:02.689Z,3.03
2018-04-09T13:57:30.173Z,3.47
2018-04-09T13:59:58.463Z,3.83
2018-04-09T14:02:26.719Z,3.03
2018-04-09T14:04:55.110Z,3.90
2018-04-09T14:07:23.361Z,4.20
2018-04-09T14:09:50.945Z,8.13
2018-04-09T14:12:19.223Z,1.90
2018-04-09T14:14:47.498Z,4.00
2018-04-09T14:17:15.002Z,3.10
2018-04-09T14:19:42.479Z,3.57
2018-04-09T14:22:09.963Z,2.47
2018-04-09T14:24:37.489Z,2.53
2018-04-09T14:27:04.997Z,2.23
2018-04-09T14:29:32.481Z,2.13
2018-04-09T14:31:59.980Z,2.67
2018-04-09T14:34:28.234Z,2.20
2018-04-09T14:36:55.721Z,4.80
2018-04-09T14:39:24.011Z,2.50
2018-04-09T14:41:51.489Z,2.00
2018-04-09T14:44:19.015Z,1.80
2018-04-09T14:46:46.490Z,2.83
2018-04-09T14:49:14.013Z,4.23
2018-04-09T14:51:42.278Z,2.83
2018-04-09T14:54:09.855Z,3.40
2018-04-09T14:56:37.362Z,3.83
2018-04-09T14:59:05.019Z,5.63
2018-04-09T15:01:32.527Z,4.00
2018-04-09T15:04:00.785Z,2.10
2018-04-09T15:06:28.361Z,2.13
2018-04-09T15:08:56.623Z,2.00
2018-04-09T15:11:24.900Z,2.87
2018-04-09T15:13:53.150Z,3.13
2018-04-09T15:16:20.651Z,3.13
2018-04-09T15:18:48.911Z,2.40
2018-04-09T15:21:17.182Z,2.70
2018-04-09T15:23:44.683Z,2.27
2018-04-09T15:26:12.239Z,3.50
2018-04-09T15:28:39.729Z,3.97
2018-04-09T15:31:07.254Z,1.60
2018-04-09T15:33:34.755Z,2.70
2018-04-09T15:36:02.245Z,3.07
2018-04-09T15:38:29.767Z,2.83
2018-04-09T15:40:57.348Z,2.67
2018-04-09T15:43:25.608Z,3.37
2018-04-09T15:45:53.877Z,3.13
2018-04-09T15:48:21.445Z,2.80
2018-04-09T15:50:49.717Z,3.70
2018-04-09T15:53:17.975Z,2.33
2018-04-09T15:55:45.489Z,2.67
2018-04-09T15:58:12.982Z,2.67
2018-04-09T16:00:40.577Z,2.23
2018-04-09T16:03:08.833Z,5.87
2018-04-09T16:05:37.107Z,2.90
2018-04-09T16:08:05.382Z,3.93
2018-04-09T16:10:33.695Z,2.40
2018-04-09T16:13:01.243Z,3.70
2018-04-09T16:15:28.739Z,4.50
2018-04-09T16:18:06.139Z,2.90
2018-04-09T16:20:33.601Z,1.90
2018-04-09T16:23:01.113Z,3.10
2018-04-09T16:25:28.645Z,2.60
2018-04-09T16:27:56.909Z,2.53
2018-04-09T16:30:25.193Z,2.13
2018-04-09T16:32:53.447Z,3.00
2018-04-09T16:35:20.988Z,3.10
2018-04-09T16:37:48.462Z,2.40
2018-04-09T16:40:16.048Z,6.10
2018-04-09T16:42:43.593Z,3.13
2018-04-09T16:45:11.855Z,5.80
2018-04-09T16:47:39.359Z,5.33
2018-04-09T16:50:06.843Z,3.00
2018-04-09T16:52:34.354Z,4.50
2018-04-09T16:55:01.909Z,3.60
2018-04-09T16:57:29.427Z,2.40
2018-04-09T16:59:57.005Z,8.10
2018-04-09T17:02:25.245Z,2.83
2018-04-09T17:04:52.738Z,3.70
2018-04-09T17:07:20.991Z,2.97
2018-04-09T17:09:48.482Z,3.60
2018-04-09T17:12:15.975Z,5.00
2018-04-09T17:14:43.614Z,2.80
2018-04-09T17:17:11.106Z,3.20
2018-04-09T17:19:38.631Z,3.87
2018-04-09T17:22:06.114Z,2.40
2018-04-09T17:24:33.598Z,3.60
2018-04-09T17:27:01.114Z,5.43
2018-04-09T17:29:28.611Z,5.10
2018-04-09T17:31:56.929Z,3.87
2018-04-09T17:34:24.448Z,2.67
2018-04-09T17:36:52.726Z,4.33
2018-04-09T17:39:21.021Z,3.00
2018-04-09T17:41:48.524Z,3.73
2018-04-09T17:44:16.027Z,3.23
2018-04-09T17:46:44.377Z,4.17
2018-04-09T17:49:11.953Z,4.97
2018-04-09T17:51:40.214Z,4.03
2018-04-09T17:54:07.868Z,6.00
2018-04-09T17:56:35.450Z,5.60
2018-04-09T17:59:03.729Z,3.17
2018-04-09T18:01:31.995Z,3.40
2018-04-09T18:04:00.295Z,4.37
2018-04-09T18:06:27.823Z,8.80
2018-04-09T18:08:56.086Z,5.40
2018-04-09T18:11:23.609Z,6.93
2018-04-09T18:13:51.128Z,4.13
2018-04-09T18:16:18.627Z,2.93
2018-04-09T18:18:46.123Z,2.83
2018-04-09T18:21:14.369Z,5.63
2018-04-09T18:23:41.961Z,4.77
2018-04-09T18:26:10.238Z,3.40
2018-04-09T18:28:38.515Z,8.10
2018-04-09T18:31:06.783Z,7.23
2018-04-09T18:33:35.067Z,6.77
2018-04-09T18:36:03.343Z,3.37
2018-04-09T18:38:31.607Z,4.37
2018-04-09T18:40:59.850Z,8.03
2018-04-09T18:43:27.353Z,4.47
2018-04-09T18:45:54.907Z,3.23
2018-04-09T18:48:22.439Z,3.70
2018-04-09T18:50:49.937Z,7.47
2018-04-09T18:53:17.459Z,5.13
2018-04-09T18:55:45.716Z,4.37
2018-04-09T18:58:13.258Z,4.87
2018-04-09T19:00:40.747Z,3.43
2018-04-09T19:03:09.039Z,6.10
2018-04-09T19:05:37.293Z,5.27
2018-04-09T19:08:04.788Z,3.80
2018-04-09T19:10:32.296Z,3.93
2018-04-09T19:12:59.885Z,4.10
2018-04-09T19:15:28.261Z,3.90
2018-04-09T19:17:56.533Z,3.83
2018-04-09T19:20:24.795Z,3.73
2018-04-09T19:22:53.055Z,4.80
2018-04-09T19:25:20.589Z,4.80
2018-04-09T19:27:48.115Z,3.73
2018-04-09T19:30:15.607Z,4.70
2018-04-09T19:32:43.105Z,3.50
2018-04-09T19:35:11.356Z,4.50
2018-04-09T19:37:44.735Z,11.60
2018-04-09T19:40:17.913Z,6.10
2018-04-09T19:42:45.490Z,7.70
2018-04-09T19:45:12.987Z,6.80
2018-04-09T19:47:41.248Z,10.80
2018-04-09T19:50:09.547Z,4.33
2018-04-09T19:52:37.095Z,6.43
2018-04-09T19:55:04.645Z,6.87
2018-04-09T19:57:32.890Z,8.37
2018-04-09T20:00:00.384Z,6.90
2018-04-09T20:02:27.898Z,8.40
2018-04-09T20:04:55.390Z,9.73
2018-04-09T20:07:23.642Z,7.23
2018-04-09T20:09:51.144Z,8.37
2018-04-09T20:12:18.625Z,5.53
2018-04-09T20:14:46.113Z,5.80
2018-04-09T20:17:13.590Z,3.70
2018-04-09T20:19:41.851Z,10.30
2018-04-09T20:22:10.162Z,4.07
2018-04-09T20:24:38.386Z,6.10
2018-04-09T20:27:05.875Z,11.97
2018-04-09T20:29:33.373Z,6.97
2018-04-09T20:32:00.993Z,5.30
2018-04-09T20:34:28.465Z,4.13
2018-04-09T20:36:55.971Z,5.73
2018-04-09T20:39:23.474Z,6.03
2018-04-09T20:41:50.957Z,3.83
2018-04-09T20:44:18.451Z,7.10
2018-04-09T20:46:46.733Z,4.40
2018-04-09T20:49:15.003Z,6.30
2018-04-09T20:51:43.285Z,5.20
2018-04-09T20:54:11.565Z,7.93
2018-04-09T20:56:39.848Z,4.43
2018-04-09T20:59:07.346Z,5.30
2018-04-09T21:01:34.864Z,4.93
2018-04-09T21:04:02.359Z,4.77
2018-04-09T21:06:29.870Z,4.77
2018-04-09T21:08:57.417Z,5.90
2018-04-09T21:11:25.661Z,4.67
2018-04-09T21:13:53.152Z,8.10
2018-04-09T21:16:21.419Z,6.83
2018-04-09T21:18:49.685Z,9.13
2018-04-09T21:21:17.190Z,6.57
2018-04-09T21:23:44.678Z,6.30
2018-04-09T21:26:12.269Z,4.87
2018-04-09T21:28:40.530Z,4.53
2018-04-09T21:31:08.018Z,8.20
2018-04-09T21:33:35.526Z,4.83
2018-04-09T21:36:03.119Z,6.37
2018-04-09T21:38:31.357Z,6.30
2018-04-09T21:40:58.850Z,6.27
2018-04-09T21:43:27.098Z,5.83
2018-04-09T21:45:54.682Z,4.73
2018-04-09T21:48:22.939Z,4.27
2018-04-09T21:50:50.519Z,5.50
2018-04-09T21:53:18.074Z,5.40
2018-04-09T21:55:46.329Z,7.20
2018-04-09T21:58:13.830Z,5.23
2018-04-09T22:00:41.369Z,8.87
2018-04-09T22:03:08.944Z,7.60
2018-04-09T22:05:36.478Z,5.27
2018-04-09T22:08:04.719Z,4.40
2018-04-09T22:10:32.219Z,6.03
2018-04-09T22:12:59.725Z,3.93
2018-04-09T22:15:27.217Z,5.60
2018-04-09T22:17:55.475Z,6.33
2018-04-09T22:20:22.984Z,6.37
2018-04-09T22:22:51.237Z,4.03
2018-04-09T22:25:18.793Z,6.90
2018-04-09T22:27:46.273Z,7.83
2018-04-09T22:30:13.753Z,4.27
2018-04-09T22:32:41.349Z,4.80
2018-04-09T22:35:09.624Z,4.90
2018-04-09T22:37:37.930Z,4.53
2018-04-09T22:40:05.435Z,4.80
2018-04-09T22:42:32.941Z,6.10
2018-04-09T22:45:00.427Z,4.17
2018-04-09T22:47:28.040Z,6.63
2018-04-09T22:49:55.620Z,4.00
2018-04-09T22:52:23.274Z,3.67
2018-04-09T22:54:50.779Z,5.60
2018-04-09T22:57:18.267Z,3.83
2018-04-09T22:59:46.517Z,4.97
2018-04-09T23:02:14.062Z,4.63
2018-04-09T23:04:41.549Z,4.70
2018-04-09T23:07:09.808Z,3.97
2018-04-09T23:09:37.388Z,3.87
2018-04-09T23:12:05.771Z,4.27
2018-04-09T23:14:33.338Z,6.00
2018-04-09T23:17:00.874Z,6.20
2018-04-09T23:19:29.118Z,7.03
2018-04-09T23:21:56.711Z,3.97
2018-04-09T23:24:24.977Z,3.70
2018-04-09T23:26:53.232Z,5.40
2018-04-09T23:29:20.731Z,4.67
2018-04-09T23:31:48.235Z,7.70
2018-04-09T23:34:15.929Z,5.03
2018-04-09T23:36:44.174Z,5.10
2018-04-09T23:39:11.761Z,4.80
2018-04-09T23:41:40.023Z,6.77
2018-04-09T23:44:08.337Z,4.03
2018-04-09T23:46:35.826Z,4.83
2018-04-09T23:49:03.341Z,5.10
2018-04-09T23:51:30.877Z,4.90
2018-04-09T23:53:59.117Z,4.70
2018-04-09T23:56:26.722Z,4.53
2018-04-09T23:58:54.965Z,5.40
